Time;durP1;ratioP1;P1;durP2;ratioP2;P2;SDS_P1;SDS_P2;PMS_P1;PMS_P2;Temp;Humidity;BMP_temperature;BMP_pressure;BME280_temperature;BME280_humidity;BME280_pressure;Samples;Min_cycle;Max_cycle;Signal;HPM_P1;HPM_P2
2022/01/04 00:02:15;;;;;;;26.92;9.38;;;8.60;99.90;;;;;;4983512;28;20102;-72
2022/01/04 00:04:41;;;;;;;26.35;10.02;;;8.70;99.90;;;;;;4985030;28;20034;-73
2022/01/04 00:07:06;;;;;;;31.00;9.75;;;8.70;99.90;;;;;;4986012;28;20596;-73
2022/01/04 00:09:35;;;;;;;28.98;9.90;;;8.60;99.90;;;;;;4986145;28;20034;-73
2022/01/04 00:13:22;;;;;;;23.95;9.57;;;8.70;99.90;;;;;;4987250;28;20061;-72
2022/01/04 00:14:46;;;;;;;26.48;8.85;;;8.70;99.90;;;;;;4984538;28;20555;-72
2022/01/04 00:17:12;;;;;;;25.17;9.25;;;8.60;99.90;;;;;;4986117;28;20113;-72
2022/01/04 00:19:37;;;;;;;33.67;9.75;;;8.70;99.90;;;;;;4986799;28;20042;-72
2022/01/04 00:22:06;;;;;;;28.95;10.02;;;8.60;99.90;;;;;;4988817;28;20066;-72
2022/01/04 00:24:31;;;;;;;27.00;8.98;;;8.70;99.90;;;;;;4984255;28;20035;-72
2022/01/04 00:26:57;;;;;;;27.08;9.43;;;8.70;99.90;;;;;;4991530;28;20052;-73
2022/01/04 00:29:22;;;;;;;27.23;9.20;;;8.70;99.90;;;;;;4983113;28;20038;-73
2022/01/04 00:31:48;;;;;;;30.48;9.02;;;8.70;99.90;;;;;;4975110;28;20057;-72
2022/01/04 00:34:14;;;;;;;30.67;9.18;;;8.70;99.90;;;;;;4988474;28;20077;-72
2022/01/04 00:36:40;;;;;;;27.27;9.57;;;8.70;99.90;;;;;;4990848;28;20042;-73
2022/01/04 00:39:05;;;;;;;30.10;8.82;;;8.70;99.90;;;;;;4986855;28;20050;-72
2022/01/04 00:41:31;;;;;;;32.88;9.82;;;8.70;99.90;;;;;;4988672;28;20035;-73
2022/01/04 00:43:57;;;;;;;27.73;9.30;;;8.80;99.90;;;;;;4991898;28;20065;-73
2022/01/04 00:46:22;;;;;;;28.02;9.73;;;8.80;99.90;;;;;;4990430;28;20508;-72
2022/01/04 00:51:32;;;;;;;25.23;9.00;;;8.70;99.90;;;;;;4975432;28;20136;-72
2022/01/04 00:53:58;;;;;;;28.38;9.40;;;8.80;99.90;;;;;;4976947;28;20065;-72
2022/01/04 00:56:24;;;;;;;30.73;9.20;;;8.80;99.90;;;;;;5008384;28;20042;-73
2022/01/04 00:58:50;;;;;;;28.75;10.13;;;8.80;99.90;;;;;;4991214;28;20041;-73
2022/01/04 01:01:15;;;;;;;33.88;10.18;;;8.80;99.90;;;;;;4992162;28;20042;-72
2022/01/04 01:03:41;;;;;;;24.83;9.50;;;8.70;99.90;;;;;;4985351;28;20121;-72
2022/01/04 01:06:07;;;;;;;21.63;8.70;;;8.70;99.90;;;;;;4974610;28;20503;-72
2022/01/04 01:08:33;;;;;;;31.75;10.18;;;8.70;99.90;;;;;;4990660;28;20397;-72
2022/01/04 01:10:59;;;;;;;26.77;10.05;;;8.70;99.90;;;;;;4985514;28;20042;-73
2022/01/04 01:13:25;;;;;;;31.33;10.65;;;8.80;99.90;;;;;;4988984;28;20061;-73
2022/01/04 01:15:50;;;;;;;23.33;11.00;;;8.80;99.90;;;;;;4984789;28;20034;-72
2022/01/04 01:18:17;;;;;;;29.13;11.23;;;8.70;99.90;;;;;;4988052;28;20165;-72
2022/01/04 01:20:46;;;;;;;34.13;10.32;;;8.70;99.90;;;;;;4984786;28;20053;-72
2022/01/04 01:23:12;;;;;;;27.02;11.02;;;8.70;99.90;;;;;;4991978;28;20049;-71
2022/01/04 01:25:38;;;;;;;32.78;11.07;;;8.70;99.90;;;;;;4981931;28;20043;-73
2022/01/04 01:28:04;;;;;;;25.00;11.15;;;8.70;99.90;;;;;;4988669;28;20050;-72
2022/01/04 01:30:33;;;;;;;32.78;11.25;;;8.70;99.90;;;;;;4989751;28;20045;-72
2022/01/04 01:32:58;;;;;;;32.60;11.65;;;8.70;99.90;;;;;;4989334;28;20487;-72
2022/01/04 01:35:25;;;;;;;29.02;11.20;;;8.60;99.90;;;;;;4990542;28;20118;-72
2022/01/04 01:37:51;;;;;;;26.85;11.25;;;8.70;99.90;;;;;;4990065;28;20401;-71
2022/01/04 01:40:16;;;;;;;28.88;11.88;;;8.70;99.90;;;;;;4985785;28;20046;-72
2022/01/04 01:42:42;;;;;;;27.23;11.40;;;8.60;99.90;;;;;;4988160;28;20045;-72
2022/01/04 01:45:10;;;;;;;26.73;11.52;;;8.60;99.90;;;;;;4990668;28;20034;-72
2022/01/04 01:47:38;;;;;;;34.03;12.15;;;8.60;99.90;;;;;;4982954;28;20070;-72
2022/01/04 01:50:04;;;;;;;30.55;11.43;;;8.60;99.90;;;;;;4985921;28;20496;-72
2022/01/04 01:52:31;;;;;;;31.13;12.90;;;8.40;99.90;;;;;;4988255;28;20035;-72
2022/01/04 01:54:57;;;;;;;27.40;10.82;;;8.50;99.90;;;;;;4985625;28;20178;-72
2022/01/04 01:57:24;;;;;;;30.45;12.93;;;8.50;99.90;;;;;;4989042;28;20117;-72
2022/01/04 01:59:50;;;;;;;34.15;13.40;;;8.50;99.90;;;;;;4989140;28;20061;-72
2022/01/04 02:02:16;;;;;;;32.15;12.63;;;8.50;99.90;;;;;;4986680;28;20038;-72
2022/01/04 02:04:42;;;;;;;32.88;13.00;;;8.60;99.90;;;;;;4990485;28;20046;-72
2022/01/04 02:07:08;;;;;;;29.77;12.30;;;8.50;99.90;;;;;;4989224;28;20066;-72
2022/01/04 02:09:37;;;;;;;33.47;12.95;;;8.50;99.90;;;;;;4989472;28;20440;-72
2022/01/04 02:12:05;;;;;;;35.55;13.35;;;8.50;99.90;;;;;;4988698;28;20416;-72
2022/01/04 02:14:30;;;;;;;34.53;13.45;;;8.60;99.90;;;;;;4984663;28;20409;-72
2022/01/04 02:16:56;;;;;;;35.67;14.57;;;8.50;99.90;;;;;;4990933;28;20042;-72
2022/01/04 02:19:22;;;;;;;38.00;14.32;;;8.50;99.90;;;;;;4989061;28;20481;-72
2022/01/04 02:21:48;;;;;;;40.83;13.40;;;8.50;99.90;;;;;;4992864;28;20034;-72
2022/01/04 02:24:13;;;;;;;30.73;13.85;;;8.50;99.90;;;;;;4980246;28;20504;-72
2022/01/04 02:26:40;;;;;;;30.58;13.23;;;8.40;99.90;;;;;;4984973;28;20054;-72
2022/01/04 02:29:07;;;;;;;31.85;14.15;;;8.40;99.90;;;;;;4988642;28;20501;-72
2022/01/04 02:31:34;;;;;;;31.95;14.30;;;8.40;99.90;;;;;;4990001;28;20053;-72
2022/01/04 02:33:59;;;;;;;38.67;13.82;;;8.40;99.90;;;;;;4990532;28;20042;-73
2022/01/04 02:36:25;;;;;;;36.22;13.98;;;8.40;99.90;;;;;;4958229;28;20052;-73
2022/01/04 02:38:51;;;;;;;25.50;14.23;;;8.40;99.90;;;;;;4967269;28;20494;-73
2022/01/04 02:41:17;;;;;;;38.85;13.68;;;8.40;99.90;;;;;;4989526;28;20038;-73
2022/01/04 02:43:42;;;;;;;32.30;14.38;;;8.30;99.90;;;;;;4988193;28;20053;-72
2022/01/04 02:46:08;;;;;;;36.20;14.30;;;8.30;99.90;;;;;;4957611;28;20045;-73
2022/01/04 02:48:43;;;;;;;33.85;14.85;;;8.30;99.90;;;;;;4986783;28;20109;-73
2022/01/04 02:51:10;;;;;;;39.83;14.50;;;8.30;99.90;;;;;;4964842;28;20683;-72
2022/01/04 02:53:36;;;;;;;37.08;14.82;;;8.40;99.90;;;;;;4985771;28;20417;-73
2022/01/04 02:56:01;;;;;;;35.35;15.27;;;8.30;99.90;;;;;;4987780;28;20038;-73
2022/01/04 02:58:27;;;;;;;38.83;15.48;;;8.30;99.90;;;;;;4982699;28;20038;-73
2022/01/04 03:00:53;;;;;;;39.53;16.73;;;8.30;99.90;;;;;;4988528;28;20051;-73
2022/01/04 03:03:18;;;;;;;31.40;14.98;;;8.30;99.90;;;;;;4982619;28;20047;-73
2022/01/04 03:05:44;;;;;;;35.75;15.88;;;8.30;99.90;;;;;;4988598;28;20026;-72
2022/01/04 03:08:10;;;;;;;36.03;15.98;;;8.30;99.90;;;;;;4986421;28;20060;-72
2022/01/04 03:10:35;;;;;;;34.70;15.98;;;8.30;99.90;;;;;;4983291;28;20422;-73
2022/01/04 03:13:04;;;;;;;36.92;15.77;;;8.30;99.90;;;;;;4987360;28;20089;-73
2022/01/04 03:15:30;;;;;;;34.78;15.60;;;8.30;99.90;;;;;;4987666;28;20623;-73
2022/01/04 03:17:56;;;;;;;44.83;15.85;;;8.30;99.90;;;;;;4991326;28;20130;-72
2022/01/04 03:20:21;;;;;;;32.35;15.45;;;8.30;99.90;;;;;;5006449;28;20042;-73
2022/01/04 03:22:47;;;;;;;28.52;15.55;;;8.30;99.90;;;;;;4987593;28;20050;-73
2022/01/04 03:25:12;;;;;;;42.78;15.60;;;8.30;99.90;;;;;;4990723;28;20072;-73
2022/01/04 03:27:39;;;;;;;37.65;16.45;;;8.30;99.90;;;;;;4986429;28;20042;-73
2022/01/04 03:30:06;;;;;;;42.10;16.08;;;8.30;99.90;;;;;;4989449;28;20087;-73
2022/01/04 03:32:31;;;;;;;35.35;16.05;;;8.30;99.90;;;;;;4988487;28;20045;-73
2022/01/04 03:34:57;;;;;;;42.80;15.77;;;8.30;99.90;;;;;;4983109;28;20043;-73
2022/01/04 03:37:23;;;;;;;35.50;16.65;;;8.20;99.90;;;;;;4985192;28;20050;-73
2022/01/04 03:39:48;;;;;;;35.70;17.05;;;8.30;99.90;;;;;;4989069;28;20042;-72
2022/01/04 03:42:14;;;;;;;36.17;16.20;;;8.30;99.90;;;;;;4983026;28;20469;-73
2022/01/04 03:44:40;;;;;;;42.05;17.23;;;8.40;99.90;;;;;;4973006;28;20046;-72
2022/01/04 03:47:06;;;;;;;37.92;16.10;;;8.40;99.90;;;;;;4988157;28;20497;-73
2022/01/04 03:49:32;;;;;;;34.40;16.65;;;8.40;99.90;;;;;;4989131;28;20034;-73
2022/01/04 03:51:58;;;;;;;36.60;16.00;;;8.50;99.90;;;;;;4989993;28;20054;-72
2022/01/04 03:54:23;;;;;;;29.98;15.50;;;8.40;99.90;;;;;;4980639;28;20038;-73
2022/01/04 03:56:50;;;;;;;35.50;16.92;;;8.40;99.90;;;;;;4985104;28;20052;-73
2022/01/04 03:59:15;;;;;;;35.10;17.25;;;8.50;99.90;;;;;;4986204;28;20038;-73
2022/01/04 04:01:41;;;;;;;36.40;16.63;;;8.50;99.90;;;;;;4988875;28;20042;-73
2022/01/04 04:04:07;;;;;;;41.17;16.38;;;8.50;99.90;;;;;;4989055;28;20513;-73
2022/01/04 04:06:32;;;;;;;38.28;17.83;;;8.50;99.90;;;;;;4990722;28;20049;-73
2022/01/04 04:08:58;;;;;;;31.50;16.80;;;8.40;99.90;;;;;;4997636;28;20042;-72
2022/01/04 04:11:27;;;;;;;36.50;16.42;;;8.50;99.90;;;;;;4990026;28;20393;-72
2022/01/04 04:13:53;;;;;;;34.63;17.85;;;8.50;99.90;;;;;;4991741;28;20389;-72
2022/01/04 04:16:19;;;;;;;35.15;18.17;;;8.40;99.90;;;;;;4989579;28;20085;-72
2022/01/04 04:18:44;;;;;;;34.20;16.98;;;8.40;99.90;;;;;;4986678;28;20034;-72
2022/01/04 04:21:10;;;;;;;40.08;17.50;;;8.40;99.90;;;;;;4990551;28;20046;-72
2022/01/04 04:23:36;;;;;;;40.60;17.35;;;8.50;99.90;;;;;;4986960;28;20049;-72
2022/01/04 04:26:03;;;;;;;34.58;18.00;;;8.50;99.90;;;;;;4986929;28;20042;-72
2022/01/04 04:28:29;;;;;;;34.42;17.38;;;8.40;99.90;;;;;;4992171;28;20377;-72
2022/01/04 04:30:56;;;;;;;35.78;18.35;;;8.40;99.90;;;;;;4992287;28;20050;-72
2022/01/04 04:33:22;;;;;;;37.10;17.95;;;8.40;99.90;;;;;;4989915;28;20117;-72
2022/01/04 04:35:48;;;;;;;37.97;18.48;;;8.40;99.90;;;;;;4982570;28;20050;-73
2022/01/04 04:38:13;;;;;;;39.97;19.42;;;8.40;99.90;;;;;;4989022;28;20043;-72
2022/01/04 04:40:39;;;;;;;36.30;18.23;;;8.40;99.90;;;;;;4985084;28;20047;-72
2022/01/04 04:43:05;;;;;;;35.13;18.58;;;8.50;99.90;;;;;;4990687;28;20046;-72
2022/01/04 04:45:31;;;;;;;38.83;19.35;;;8.50;99.90;;;;;;4987352;28;20049;-72
2022/01/04 04:47:57;;;;;;;36.15;19.48;;;8.50;99.90;;;;;;4990736;28;20049;-72
2022/01/04 04:50:22;;;;;;;35.65;18.38;;;8.40;99.90;;;;;;4991711;28;20042;-72
2022/01/04 04:52:48;;;;;;;35.17;18.02;;;8.40;99.90;;;;;;4992228;28;20092;-72
2022/01/04 04:55:14;;;;;;;34.15;18.58;;;8.40;99.90;;;;;;4988899;28;20446;-73
2022/01/04 04:57:40;;;;;;;31.33;17.33;;;8.40;99.90;;;;;;4988140;28;20038;-72
2022/01/04 05:00:08;;;;;;;36.72;17.75;;;8.40;99.90;;;;;;4981978;28;20046;-72
2022/01/04 05:02:34;;;;;;;37.72;17.67;;;8.40;99.90;;;;;;4985194;28;20116;-73
2022/01/04 05:05:00;;;;;;;25.17;16.17;;;8.40;99.90;;;;;;4989752;28;20054;-72
2022/01/04 05:07:26;;;;;;;31.15;17.15;;;8.40;99.90;;;;;;4985385;28;20038;-72
2022/01/04 05:09:52;;;;;;;32.55;16.73;;;8.40;99.90;;;;;;4990509;28;20493;-73
2022/01/04 05:12:18;;;;;;;32.58;16.67;;;8.40;99.90;;;;;;4982723;28;20035;-73
2022/01/04 05:14:46;;;;;;;30.15;16.45;;;8.40;99.90;;;;;;4989204;28;20045;-72
2022/01/04 05:17:13;;;;;;;33.85;17.02;;;8.40;99.90;;;;;;4989590;28;20038;-72
2022/01/04 05:19:39;;;;;;;31.45;17.40;;;8.40;99.90;;;;;;4986769;28;20497;-73
2022/01/04 05:22:05;;;;;;;29.85;16.60;;;8.30;99.90;;;;;;4987835;28;20497;-73
2022/01/04 05:24:30;;;;;;;30.42;17.10;;;8.30;99.90;;;;;;4990071;28;20050;-72
2022/01/04 05:26:56;;;;;;;28.70;16.73;;;8.30;99.90;;;;;;4985297;28;20047;-73
2022/01/04 05:29:22;;;;;;;29.80;17.58;;;8.30;99.90;;;;;;4989592;28;20039;-72
2022/01/04 05:31:47;;;;;;;29.95;17.05;;;8.30;99.90;;;;;;4988064;28;20038;-72
2022/01/04 05:34:13;;;;;;;32.15;16.70;;;8.30;99.90;;;;;;4991377;28;20038;-73
2022/01/04 05:36:38;;;;;;;31.17;17.85;;;8.30;99.90;;;;;;4988560;28;20038;-73
2022/01/04 05:39:04;;;;;;;29.60;16.02;;;8.30;99.90;;;;;;4984188;28;20042;-73
2022/01/04 05:41:30;;;;;;;33.38;16.38;;;8.40;99.90;;;;;;5016144;22;20049;-73
2022/01/04 05:43:55;;;;;;;34.20;17.38;;;8.30;99.90;;;;;;5027291;28;20104;-74
2022/01/04 05:46:21;;;;;;;32.03;17.25;;;8.30;99.90;;;;;;5027378;28;20399;-74
2022/01/04 05:48:47;;;;;;;39.13;18.30;;;8.30;99.90;;;;;;5010295;28;20124;-74
2022/01/04 05:51:12;;;;;;;35.25;18.45;;;8.30;99.90;;;;;;5003327;28;20034;-73
2022/01/04 05:53:38;;;;;;;35.90;18.98;;;8.30;99.90;;;;;;4986036;28;20038;-73
2022/01/04 05:56:04;;;;;;;35.97;18.67;;;8.30;99.90;;;;;;4991079;28;20046;-73
2022/01/04 05:58:29;;;;;;;33.05;19.55;;;8.30;99.90;;;;;;4984728;28;20046;-73
2022/01/04 06:00:55;;;;;;;34.22;20.65;;;8.30;99.90;;;;;;5002464;28;20043;-73
2022/01/04 06:03:21;;;;;;;37.30;20.35;;;8.30;99.90;;;;;;4984533;28;20053;-73
2022/01/04 06:05:46;;;;;;;34.95;20.48;;;8.30;99.90;;;;;;4990144;28;20035;-73
2022/01/04 06:08:12;;;;;;;37.63;21.02;;;8.40;99.90;;;;;;4990596;28;20046;-73
2022/01/04 06:10:40;;;;;;;38.47;21.27;;;8.30;99.90;;;;;;4973694;28;20046;-73
2022/01/04 06:15:32;;;;;;;38.67;21.83;;;8.30;99.90;;;;;;4990779;28;20129;-74
2022/01/04 06:17:58;;;;;;;37.97;22.08;;;8.30;99.90;;;;;;4990272;28;20046;-74
2022/01/04 06:20:24;;;;;;;41.33;22.40;;;8.30;99.90;;;;;;4990542;28;20041;-74
2022/01/04 06:22:51;;;;;;;42.03;22.65;;;8.20;99.90;;;;;;4989885;28;20042;-74
2022/01/04 06:25:19;;;;;;;40.75;22.67;;;8.20;99.90;;;;;;4991494;28;20675;-74
2022/01/04 06:27:47;;;;;;;40.15;23.95;;;8.20;99.90;;;;;;4984980;28;20076;-74
2022/01/04 06:30:17;;;;;;;48.00;24.50;;;8.20;99.90;;;;;;4988118;28;20500;-74
2022/01/04 06:32:44;;;;;;;43.28;24.55;;;8.20;99.90;;;;;;4990240;28;20523;-74
2022/01/04 06:35:10;;;;;;;43.15;24.75;;;8.20;99.90;;;;;;4989514;28;20515;-74
2022/01/04 06:37:36;;;;;;;42.92;22.83;;;8.20;99.90;;;;;;5007110;28;20404;-74
2022/01/04 06:40:03;;;;;;;49.90;25.42;;;8.30;99.90;;;;;;4990173;28;20045;-74
2022/01/04 06:42:28;;;;;;;42.55;25.00;;;8.30;99.90;;;;;;5001273;28;20463;-74
2022/01/04 06:44:54;;;;;;;41.78;25.58;;;8.30;99.90;;;;;;4994297;28;20142;-74
2022/01/04 06:47:20;;;;;;;46.53;25.67;;;8.20;99.90;;;;;;4988395;28;20081;-75
2022/01/04 06:49:45;;;;;;;47.55;24.10;;;8.30;99.90;;;;;;4968607;28;20050;-74
2022/01/04 06:52:11;;;;;;;49.20;25.35;;;8.30;99.90;;;;;;4986806;28;20053;-75
2022/01/04 06:54:36;;;;;;;48.80;26.23;;;8.30;99.90;;;;;;4990275;28;20042;-74
2022/01/04 06:57:03;;;;;;;44.03;25.27;;;8.30;99.90;;;;;;4986802;28;20042;-74
2022/01/04 06:59:28;;;;;;;44.85;24.25;;;8.30;99.90;;;;;;4973315;28;20045;-74
2022/01/04 07:01:54;;;;;;;41.33;25.02;;;8.30;99.90;;;;;;4990209;28;20377;-74
2022/01/04 07:04:19;;;;;;;47.35;25.77;;;8.30;99.90;;;;;;4987762;28;20599;-74
2022/01/04 07:06:45;;;;;;;49.40;25.85;;;8.20;99.90;;;;;;4973253;28;20038;-74
2022/01/04 07:09:11;;;;;;;50.75;26.35;;;8.30;99.90;;;;;;4989507;28;20500;-74
2022/01/04 07:11:37;;;;;;;45.45;26.10;;;8.30;99.90;;;;;;4987580;28;20050;-74
2022/01/04 07:14:04;;;;;;;42.95;25.92;;;8.30;99.90;;;;;;4989932;28;20031;-74
2022/01/04 07:16:30;;;;;;;46.13;25.75;;;8.30;99.90;;;;;;4979898;28;20097;-74
2022/01/04 07:18:55;;;;;;;49.70;26.90;;;8.30;99.90;;;;;;4989400;28;20042;-74
2022/01/04 07:21:22;;;;;;;51.28;27.48;;;8.30;99.90;;;;;;4989283;28;20046;-74
2022/01/04 07:23:48;;;;;;;45.60;26.33;;;8.30;99.90;;;;;;4968238;28;20035;-74
2022/01/04 07:26:15;;;;;;;49.42;25.17;;;8.30;99.90;;;;;;4988942;28;20109;-74
2022/01/04 07:28:43;;;;;;;47.72;27.40;;;8.30;99.90;;;;;;4972313;28;20085;-75
2022/01/04 07:31:10;;;;;;;49.17;27.13;;;8.30;99.90;;;;;;4989284;28;20461;-74
2022/01/04 07:33:36;;;;;;;52.05;28.27;;;8.30;99.90;;;;;;4980614;28;20046;-74
2022/01/04 07:36:02;;;;;;;49.13;27.90;;;8.30;99.90;;;;;;4989314;28;20100;-74
2022/01/04 07:38:28;;;;;;;47.53;26.38;;;8.30;99.90;;;;;;4988983;28;20045;-74
2022/01/04 07:40:54;;;;;;;51.30;28.33;;;8.30;99.90;;;;;;4986830;28;20732;-74
2022/01/04 07:43:19;;;;;;;51.30;27.52;;;8.20;99.90;;;;;;4986356;28;20062;-74
2022/01/04 07:45:45;;;;;;;53.03;28.30;;;8.20;99.90;;;;;;4988183;28;20088;-74
2022/01/04 07:48:10;;;;;;;48.17;29.02;;;8.20;99.90;;;;;;4988959;28;20749;-74
2022/01/04 07:59:33;;;;;;;;;;;;;;;;;;;;;
2022/01/04 08:23:28;;;;;;;;;;;;;;;;;;;;;
2022/01/04 08:36:38;;;;;;;49.80;27.90;;;8.20;99.90;;;;;;2585230;22;20054;-75
2022/01/04 08:39:04;;;;;;;44.55;26.70;;;8.10;99.90;;;;;;5022307;28;20053;-75
2022/01/04 08:41:30;;;;;;;44.15;25.63;;;8.10;99.90;;;;;;5014944;28;20046;-75
2022/01/04 08:43:55;;;;;;;45.17;26.08;;;8.10;99.90;;;;;;4985194;28;20385;-75
2022/01/04 08:46:22;;;;;;;44.30;26.02;;;8.10;99.90;;;;;;4988428;28;20443;-75
2022/01/04 08:48:48;;;;;;;41.42;25.27;;;8.20;99.90;;;;;;4983752;28;20034;-75
2022/01/04 08:51:14;;;;;;;44.72;25.48;;;8.20;99.90;;;;;;4979886;28;20042;-75
2022/01/04 08:53:40;;;;;;;39.72;25.02;;;8.20;99.90;;;;;;4987261;28;20039;-75
2022/01/04 08:56:06;;;;;;;44.65;26.25;;;8.20;99.90;;;;;;4979833;28;20460;-75
2022/01/04 08:58:32;;;;;;;44.70;25.85;;;8.20;99.90;;;;;;4997630;28;20038;-75
2022/01/04 09:00:59;;;;;;;43.20;25.83;;;8.10;99.90;;;;;;4976009;28;20049;-75
2022/01/04 09:03:26;;;;;;;48.05;27.20;;;8.20;99.90;;;;;;4981360;28;20038;-75
2022/01/04 09:05:52;;;;;;;49.33;27.17;;;8.10;99.90;;;;;;4975690;28;20039;-74
2022/01/04 09:08:17;;;;;;;46.45;26.80;;;8.10;99.90;;;;;;4972136;28;20396;-74
2022/01/04 09:13:49;;;;;;;45.45;27.02;;;8.10;99.90;;;;;;4741736;26;20053;-74
2022/01/04 09:19:55;;;;;;;53.40;28.00;;;8.20;99.90;;;;;;5022397;28;20045;-74
2022/01/04 09:22:21;;;;;;;34.63;20.65;;;8.20;99.90;;;;;;5024023;28;20091;-75
2022/01/04 09:24:47;;;;;;;33.85;19.08;;;8.20;99.90;;;;;;5038625;28;20049;-75
2022/01/04 09:27:13;;;;;;;26.02;17.45;;;8.20;99.90;;;;;;5006963;28;20124;-75
2022/01/04 09:29:39;;;;;;;24.65;16.38;;;8.20;99.90;;;;;;5027000;28;20414;-74
2022/01/04 09:32:05;;;;;;;27.80;17.55;;;8.10;99.90;;;;;;5023633;28;20068;-75
2022/01/04 09:34:31;;;;;;;19.90;13.40;;;8.10;99.90;;;;;;5008079;28;20030;-75
2022/01/04 09:36:56;;;;;;;11.23;6.93;;;8.10;99.90;;;;;;5015799;28;20452;-75
2022/01/04 09:39:24;;;;;;;9.73;6.45;;;8.00;99.90;;;;;;5016127;28;20037;-75
2022/01/04 09:41:51;;;;;;;7.85;4.90;;;8.00;99.90;;;;;;5026244;28;20045;-75
2022/01/04 09:44:17;;;;;;;7.65;4.78;;;7.90;99.90;;;;;;5028324;28;20068;-75
2022/01/04 09:46:43;;;;;;;9.55;5.20;;;7.90;99.90;;;;;;5040310;28;20045;-75
2022/01/04 09:49:11;;;;;;;7.32;5.20;;;7.90;99.90;;;;;;5014460;28;20041;-75
2022/01/04 09:51:39;;;;;;;11.18;6.85;;;7.80;99.90;;;;;;5004940;28;20042;-75
2022/01/04 09:54:05;;;;;;;13.82;9.18;;;7.80;99.90;;;;;;5022164;28;20069;-74
2022/01/04 09:56:31;;;;;;;18.35;11.18;;;7.90;99.90;;;;;;5024377;28;20475;-74
2022/01/04 09:58:57;;;;;;;18.42;11.85;;;7.90;99.90;;;;;;5025091;28;20400;-74
2022/01/04 10:01:25;;;;;;;19.05;12.93;;;7.90;99.90;;;;;;5037284;28;20088;-74
2022/01/04 10:03:51;;;;;;;20.02;13.73;;;7.90;99.90;;;;;;5044026;28;20041;-74
2022/01/04 10:06:18;;;;;;;25.45;15.30;;;7.90;99.90;;;;;;5025853;28;20041;-74
2022/01/04 10:09:18;;;;;;;25.83;15.55;;;7.90;99.90;;;;;;5026377;28;20056;-74
2022/01/04 10:11:48;;;;;;;27.77;14.70;;;7.90;99.90;;;;;;5018065;28;20092;-74
2022/01/04 10:14:29;;;;;;;28.38;14.85;;;8.00;99.90;;;;;;5026474;28;20061;-74
2022/01/04 10:16:58;;;;;;;24.90;14.27;;;8.00;99.90;;;;;;5008426;28;20029;-74
2022/01/04 10:19:53;;;;;;;25.50;14.00;;;8.00;99.90;;;;;;5027222;28;20028;-75
2022/01/04 10:22:24;;;;;;;27.90;14.93;;;8.10;99.90;;;;;;5020930;28;20127;-75
2022/01/04 10:25:12;;;;;;;25.50;13.70;;;8.00;99.90;;;;;;5021684;28;20046;-75
2022/01/04 10:27:46;;;;;;;23.58;12.07;;;8.00;99.90;;;;;;5022151;28;20044;-75
2022/01/04 10:30:27;;;;;;;24.48;11.55;;;8.00;99.90;;;;;;5037505;28;20062;-74
2022/01/04 10:33:03;;;;;;;22.15;11.68;;;8.10;99.90;;;;;;5020169;28;20041;-75
2022/01/04 10:35:34;;;;;;;22.33;11.18;;;8.00;99.90;;;;;;5027224;28;20072;-74
2022/01/04 10:38:19;;;;;;;13.25;7.85;;;8.00;99.90;;;;;;5023268;28;20103;-75
2022/01/04 10:41:01;;;;;;;12.02;4.82;;;8.20;99.90;;;;;;5021096;28;20046;-76
2022/01/04 10:43:36;;;;;;;7.40;3.97;;;8.10;99.90;;;;;;5021185;28;20041;-76
2022/01/04 10:46:03;;;;;;;8.50;3.90;;;8.00;99.90;;;;;;5024515;28;20060;-75
2022/01/04 10:48:41;;;;;;;9.90;3.17;;;8.00;99.90;;;;;;5020331;28;20080;-75
2022/01/04 10:51:20;;;;;;;6.40;2.40;;;7.90;99.90;;;;;;5022937;28;20080;-75
2022/01/04 10:53:50;;;;;;;9.07;2.80;;;7.90;99.90;;;;;;5008807;28;20095;-75
2022/01/04 10:56:34;;;;;;;10.55;2.70;;;7.90;99.90;;;;;;5025451;28;20034;-74
2022/01/04 10:59:11;;;;;;;7.53;3.15;;;7.80;99.90;;;;;;5025239;28;20039;-73
2022/01/04 11:01:45;;;;;;;12.25;4.47;;;7.80;99.90;;;;;;5030240;28;20072;-75
2022/01/04 11:04:16;;;;;;;11.48;4.63;;;7.80;99.90;;;;;;5023686;28;20053;-74
2022/01/04 11:06:43;;;;;;;10.50;5.35;;;7.80;99.90;;;;;;5026621;28;20091;-74
2022/01/04 11:09:10;;;;;;;19.58;10.82;;;7.80;99.90;;;;;;5025296;28;20044;-75
2022/01/04 11:11:36;;;;;;;5.97;3.13;;;7.80;99.90;;;;;;5027603;28;20073;-74
2022/01/04 11:14:03;;;;;;;15.32;10.32;;;7.80;99.90;;;;;;5025982;28;20037;-74
2022/01/04 11:16:30;;;;;;;14.73;9.27;;;7.80;99.90;;;;;;5026587;28;20112;-74
2022/01/04 11:18:57;;;;;;;27.17;18.15;;;7.80;99.90;;;;;;5026054;28;20091;-74
2022/01/04 11:21:29;;;;;;;6.65;3.03;;;7.80;99.90;;;;;;5025078;28;20049;-74
2022/01/04 11:23:55;;;;;;;12.23;8.93;;;7.70;99.90;;;;;;5020971;28;20073;-74
2022/01/04 11:26:22;;;;;;;12.90;8.10;;;7.70;99.90;;;;;;5022210;28;20053;-74
2022/01/04 11:28:50;;;;;;;18.83;14.00;;;7.70;99.90;;;;;;5022354;28;20044;-73
2022/01/04 11:31:26;;;;;;;9.10;2.85;;;7.70;99.90;;;;;;5007052;28;20072;-74
2022/01/04 11:34:04;;;;;;;6.05;2.33;;;7.70;99.90;;;;;;5027819;28;20619;-73
2022/01/04 11:36:34;;;;;;;4.03;2.70;;;7.70;99.90;;;;;;5023816;28;20163;-74
2022/01/04 11:39:00;;;;;;;6.55;2.30;;;7.70;99.90;;;;;;5023990;28;20396;-73
2022/01/04 11:41:43;;;;;;;7.85;2.20;;;7.60;99.90;;;;;;5021180;28;20045;-73
2022/01/04 11:44:16;;;;;;;8.60;2.20;;;7.60;99.90;;;;;;5011944;28;20041;-74
2022/01/04 11:46:42;;;;;;;;;;;7.50;99.90;;;;;;5023209;28;20573;-74
2022/01/04 11:49:10;;;;;;;2.72;0.93;;;7.50;99.90;;;;;;5035978;28;19984;-74
2022/01/04 11:51:38;;;;;;;10.98;5.65;;;7.50;99.90;;;;;;5012680;28;20548;-74
2022/01/04 11:54:27;;;;;;;17.67;11.90;;;7.40;99.90;;;;;;5034128;28;20172;-74
2022/01/04 11:57:08;;;;;;;4.22;2.13;;;7.20;99.90;;;;;;5026628;28;20404;-74
2022/01/04 11:59:43;;;;;;;13.48;8.13;;;7.20;99.90;;;;;;5019795;28;20718;-74
2022/01/04 12:02:28;;;;;;;9.75;4.22;;;7.10;99.90;;;;;;5036387;28;20427;-74
2022/01/04 12:04:56;;;;;;;9.23;5.05;;;7.00;99.90;;;;;;5023420;28;20045;-74
2022/01/04 12:07:48;;;;;;;5.78;1.90;;;7.00;99.90;;;;;;5024456;28;20459;-74
2022/01/04 12:10:20;;;;;;;6.97;2.10;;;7.00;99.90;;;;;;5019559;28;20083;-74
2022/01/04 12:13:03;;;;;;;5.80;2.40;;;6.90;99.90;;;;;;5015409;28;20111;-74
2022/01/04 12:15:32;;;;;;;10.63;7.18;;;6.90;99.90;;;;;;5015239;28;20037;-74
2022/01/04 12:17:59;;;;;;;9.77;5.10;;;6.90;99.90;;;;;;5015408;28;20226;-74
2022/01/04 12:20:42;;;;;;;6.15;1.75;;;7.00;99.90;;;;;;5018048;28;20171;-74
2022/01/04 12:23:27;;;;;;;9.07;4.18;;;7.00;99.90;;;;;;5026020;28;20120;-75
2022/01/04 12:26:05;;;;;;;4.03;2.20;;;6.90;99.90;;;;;;5008647;28;20060;-74
2022/01/04 12:28:42;;;;;;;7.88;1.83;;;6.90;99.90;;;;;;5021503;28;20033;-74
2022/01/04 12:31:17;;;;;;;4.20;1.65;;;6.90;99.90;;;;;;5019939;28;20131;-74
2022/01/04 12:34:00;;;;;;;9.07;5.07;;;6.80;99.90;;;;;;5009541;28;20037;-74
2022/01/04 12:36:31;;;;;;;8.00;2.65;;;6.70;99.90;;;;;;5012957;28;20063;-75
2022/01/04 12:38:58;;;;;;;3.90;1.45;;;6.70;99.90;;;;;;5022689;28;20499;-75
2022/01/04 12:41:25;;;;;;;9.05;6.32;;;6.60;99.90;;;;;;5021041;28;20068;-75
2022/01/04 12:43:52;;;;;;;6.88;1.00;;;6.60;99.90;;;;;;5022949;28;20046;-75
2022/01/04 12:46:46;;;;;;;4.80;2.05;;;6.60;99.90;;;;;;5019328;28;20046;-75
2022/01/04 12:49:17;;;;;;;7.75;2.20;;;6.60;99.90;;;;;;5017294;28;20053;-75
2022/01/04 12:51:47;;;;;;;10.73;6.15;;;6.60;99.90;;;;;;5027968;28;20049;-75
2022/01/04 12:54:26;;;;;;;6.80;4.30;;;6.60;99.90;;;;;;5012610;28;20038;-75
2022/01/04 12:57:12;;;;;;;9.75;6.15;;;6.60;99.90;;;;;;5048706;28;20083;-75
2022/01/04 12:59:45;;;;;;;4.13;1.73;;;6.70;99.90;;;;;;5024204;28;20121;-75
2022/01/04 13:02:21;;;;;;;6.97;4.28;;;6.80;99.90;;;;;;5040031;28;20072;-75
2022/01/04 13:04:52;;;;;;;8.75;5.75;;;6.80;99.90;;;;;;5021618;28;20052;-75
2022/01/04 13:07:20;;;;;;;19.95;14.32;;;6.80;99.90;;;;;;5008263;28;20495;-75
2022/01/04 13:09:59;;;;;;;17.63;12.98;;;6.70;99.90;;;;;;5041246;28;20041;-75
2022/01/04 13:12:30;;;;;;;8.43;2.22;;;6.70;99.90;;;;;;5025991;28;20033;-75
2022/01/04 13:14:57;;;;;;;14.80;6.77;;;6.70;99.90;;;;;;5023900;28;20041;-75
2022/01/04 13:17:26;;;;;;;10.65;1.70;;;6.70;99.90;;;;;;5033266;28;20041;-75
2022/01/04 13:19:52;;;;;;;5.57;1.02;;;6.70;99.90;;;;;;5021813;28;20087;-75
2022/01/04 13:22:20;;;;;;;6.93;1.92;;;6.80;99.90;;;;;;5038987;28;20065;-75
2022/01/04 13:25:07;;;;;;;8.48;1.65;;;6.80;99.90;;;;;;5023078;28;20038;-75
2022/01/04 13:27:52;;;;;;;9.40;1.50;;;6.80;99.90;;;;;;5015673;28;20086;-75
2022/01/04 13:30:25;;;;;;;10.43;2.15;;;6.80;99.90;;;;;;5021685;28;20099;-75
2022/01/04 13:32:52;;;;;;;;;;;6.80;99.90;;;;;;5025478;28;20054;-75
2022/01/04 13:35:31;;;;;;;8.32;1.38;;;6.80;99.90;;;;;;5024195;28;19925;-75
2022/01/04 13:38:03;;;;;;;5.85;1.80;;;6.80;99.90;;;;;;5025638;28;20151;-75
2022/01/04 13:40:30;;;;;;;5.20;1.42;;;6.80;99.90;;;;;;5040935;28;20069;-76
2022/01/04 13:43:05;;;;;;;8.65;1.40;;;6.70;99.90;;;;;;5020683;28;20041;-75
2022/01/04 13:45:56;;;;;;;7.40;2.10;;;6.80;99.90;;;;;;5000749;28;20041;-75